Carvoeiro, Brazil
Current Conditions -  °F | °C
As of 8:00 AM on Saturday 25 Oct 2014 (Local Time) from SBJU Reporting Station
Broken Clouds Broken Clouds  
Wind Chill: 82°   Ceiling: 2000
Heat Index: 85°   Visibility: 6mi
Dew Point: 68°   Wind: 12mph
Humidity: 62%   Direction: 130°SE
Pressure: 30.06"   Gusts: NA
Location:  6.12°S, 37.73°W
Report Text: SBJU 251100Z 13010KT 9999 BKN020 28/20 Q1018
Loading
Personal Weather Stations






























Interactive Weather Map
Tropical Storm Tracking
New forecast layout! Learn more

10-Day Weather Forecast

Advertisements
Track Severe Weather on mobile